sensor_id;sensor_type;location;lat;lon;timestamp;temperature;humidity
60455;DHT22;54989;53.398;6.564;2022-10-22T00:00:42;20.30;63.80
60455;DHT22;54989;53.398;6.564;2022-10-22T00:03:10;20.30;63.80
60455;DHT22;54989;53.398;6.564;2022-10-22T00:05:38;20.20;63.70
60455;DHT22;54989;53.398;6.564;2022-10-22T00:08:05;20.20;63.80
60455;DHT22;54989;53.398;6.564;2022-10-22T00:10:32;20.30;63.80
60455;DHT22;54989;53.398;6.564;2022-10-22T00:13:00;20.30;63.80
60455;DHT22;54989;53.398;6.564;2022-10-22T00:15:27;20.30;63.80
60455;DHT22;54989;53.398;6.564;2022-10-22T00:17:54;20.20;63.70
60455;DHT22;54989;53.398;6.564;2022-10-22T00:20:22;20.30;63.80
60455;DHT22;54989;53.398;6.564;2022-10-22T00:22:49;20.20;63.70
60455;DHT22;54989;53.398;6.564;2022-10-22T00:25:18;20.20;63.80
60455;DHT22;54989;53.398;6.564;2022-10-22T00:27:45;20.20;63.70
60455;DHT22;54989;53.398;6.564;2022-10-22T00:30:13;20.20;63.80
60455;DHT22;54989;53.398;6.564;2022-10-22T00:32:40;20.20;63.80
60455;DHT22;54989;53.398;6.564;2022-10-22T00:35:08;20.20;63.80
60455;DHT22;54989;53.398;6.564;2022-10-22T00:37:35;20.20;63.80
60455;DHT22;54989;53.398;6.564;2022-10-22T00:40:04;20.20;63.80
60455;DHT22;54989;53.398;6.564;2022-10-22T00:42:31;20.20;63.80
60455;DHT22;54989;53.398;6.564;2022-10-22T00:45:06;20.20;63.80
60455;DHT22;54989;53.398;6.564;2022-10-22T00:50:19;20.20;63.80
60455;DHT22;54989;53.398;6.564;2022-10-22T00:52:48;20.20;63.80
60455;DHT22;54989;53.398;6.564;2022-10-22T00:55:17;20.10;63.80
60455;DHT22;54989;53.398;6.564;2022-10-22T00:57:45;20.20;63.90
60455;DHT22;54989;53.398;6.564;2022-10-22T01:00:13;20.20;63.90
60455;DHT22;54989;53.398;6.564;2022-10-22T01:02:41;20.10;63.80
60455;DHT22;54989;53.398;6.564;2022-10-22T01:05:09;20.10;63.80
60455;DHT22;54989;53.398;6.564;2022-10-22T01:07:41;20.10;63.80
60455;DHT22;54989;53.398;6.564;2022-10-22T01:10:24;20.10;63.80
60455;DHT22;54989;53.398;6.564;2022-10-22T01:13:15;20.10;63.90
60455;DHT22;54989;53.398;6.564;2022-10-22T01:18:33;20.10;63.90
60455;DHT22;54989;53.398;6.564;2022-10-22T01:21:12;20.10;63.90
60455;DHT22;54989;53.398;6.564;2022-10-22T01:29:06;20.10;63.90
60455;DHT22;54989;53.398;6.564;2022-10-22T01:31:44;20.10;64.00
60455;DHT22;54989;53.398;6.564;2022-10-22T01:34:15;20.10;63.90
60455;DHT22;54989;53.398;6.564;2022-10-22T01:36:45;20.10;63.90
60455;DHT22;54989;53.398;6.564;2022-10-22T01:39:14;20.10;63.90
60455;DHT22;54989;53.398;6.564;2022-10-22T01:41:43;20.10;63.90
60455;DHT22;54989;53.398;6.564;2022-10-22T01:44:30;20.10;63.90
60455;DHT22;54989;53.398;6.564;2022-10-22T01:47:13;20.10;63.90
60455;DHT22;54989;53.398;6.564;2022-10-22T01:49:55;20.00;63.80
60455;DHT22;54989;53.398;6.564;2022-10-22T01:57:42;20.00;63.90
60455;DHT22;54989;53.398;6.564;2022-10-22T02:00:13;20.00;63.90
60455;DHT22;54989;53.398;6.564;2022-10-22T02:08:31;20.00;63.90
60455;DHT22;54989;53.398;6.564;2022-10-22T02:10:51;20.00;64.00
60455;DHT22;54989;53.398;6.564;2022-10-22T02:13:29;20.00;63.90
60455;DHT22;54989;53.398;6.564;2022-10-22T02:16:03;20.00;63.90
60455;DHT22;54989;53.398;6.564;2022-10-22T02:18:34;20.00;63.90
60455;DHT22;54989;53.398;6.564;2022-10-22T02:21:06;20.00;64.00
60455;DHT22;54989;53.398;6.564;2022-10-22T02:23:38;20.00;63.90
60455;DHT22;54989;53.398;6.564;2022-10-22T02:26:13;20.00;63.90
60455;DHT22;54989;53.398;6.564;2022-10-22T02:29:03;20.00;63.90
60455;DHT22;54989;53.398;6.564;2022-10-22T02:31:35;20.00;63.90
60455;DHT22;54989;53.398;6.564;2022-10-22T02:34:11;20.00;64.00
60455;DHT22;54989;53.398;6.564;2022-10-22T02:36:42;20.00;64.00
60455;DHT22;54989;53.398;6.564;2022-10-22T02:39:15;20.00;64.00
60455;DHT22;54989;53.398;6.564;2022-10-22T02:41:43;20.00;63.90
60455;DHT22;54989;53.398;6.564;2022-10-22T02:44:11;20.00;63.90
60455;DHT22;54989;53.398;6.564;2022-10-22T02:46:39;20.00;64.00
60455;DHT22;54989;53.398;6.564;2022-10-22T02:49:08;19.90;63.90
60455;DHT22;54989;53.398;6.564;2022-10-22T02:51:36;19.90;63.90
60455;DHT22;54989;53.398;6.564;2022-10-22T02:54:03;19.90;63.90
60455;DHT22;54989;53.398;6.564;2022-10-22T02:56:31;19.90;63.90
60455;DHT22;54989;53.398;6.564;2022-10-22T02:58:58;19.90;63.90
60455;DHT22;54989;53.398;6.564;2022-10-22T03:01:26;19.90;63.90
60455;DHT22;54989;53.398;6.564;2022-10-22T03:03:53;19.90;63.90
60455;DHT22;54989;53.398;6.564;2022-10-22T03:06:20;19.90;63.90
60455;DHT22;54989;53.398;6.564;2022-10-22T03:08:48;19.90;63.90
60455;DHT22;54989;53.398;6.564;2022-10-22T03:11:15;19.90;63.90
60455;DHT22;54989;53.398;6.564;2022-10-22T03:13:43;19.90;63.90
60455;DHT22;54989;53.398;6.564;2022-10-22T03:16:10;19.90;63.90
60455;DHT22;54989;53.398;6.564;2022-10-22T03:18:38;19.90;64.00
60455;DHT22;54989;53.398;6.564;2022-10-22T03:21:10;19.90;63.90
60455;DHT22;54989;53.398;6.564;2022-10-22T03:23:41;19.90;63.90
60455;DHT22;54989;53.398;6.564;2022-10-22T03:26:10;19.90;63.90
60455;DHT22;54989;53.398;6.564;2022-10-22T03:28:40;19.90;63.80
60455;DHT22;54989;53.398;6.564;2022-10-22T03:31:08;19.90;63.90
60455;DHT22;54989;53.398;6.564;2022-10-22T03:33:35;19.90;64.00
60455;DHT22;54989;53.398;6.564;2022-10-22T03:36:02;19.90;64.00
60455;DHT22;54989;53.398;6.564;2022-10-22T03:38:30;19.90;64.00
60455;DHT22;54989;53.398;6.564;2022-10-22T03:40:58;19.90;64.00
60455;DHT22;54989;53.398;6.564;2022-10-22T03:43:25;19.80;63.90
60455;DHT22;54989;53.398;6.564;2022-10-22T03:45:52;19.80;63.90
60455;DHT22;54989;53.398;6.564;2022-10-22T03:48:20;19.80;63.90
60455;DHT22;54989;53.398;6.564;2022-10-22T03:50:48;19.80;63.90
60455;DHT22;54989;53.398;6.564;2022-10-22T03:53:15;19.80;63.90
60455;DHT22;54989;53.398;6.564;2022-10-22T03:55:44;19.80;63.90
60455;DHT22;54989;53.398;6.564;2022-10-22T03:58:11;19.80;63.90
60455;DHT22;54989;53.398;6.564;2022-10-22T04:00:39;19.80;63.90
60455;DHT22;54989;53.398;6.564;2022-10-22T04:03:06;19.80;63.90
60455;DHT22;54989;53.398;6.564;2022-10-22T04:05:33;19.80;63.90
60455;DHT22;54989;53.398;6.564;2022-10-22T04:08:01;19.80;63.90
60455;DHT22;54989;53.398;6.564;2022-10-22T04:10:28;19.80;64.00
60455;DHT22;54989;53.398;6.564;2022-10-22T04:12:56;19.80;63.90
60455;DHT22;54989;53.398;6.564;2022-10-22T04:15:23;19.80;64.00
60455;DHT22;54989;53.398;6.564;2022-10-22T04:17:54;19.80;63.90
60455;DHT22;54989;53.398;6.564;2022-10-22T04:20:22;19.80;63.90
60455;DHT22;54989;53.398;6.564;2022-10-22T04:22:49;19.80;64.00
60455;DHT22;54989;53.398;6.564;2022-10-22T04:25:17;19.80;63.90
60455;DHT22;54989;53.398;6.564;2022-10-22T04:27:44;19.80;64.00
60455;DHT22;54989;53.398;6.564;2022-10-22T04:30:12;19.80;63.90
60455;DHT22;54989;53.398;6.564;2022-10-22T04:32:40;19.80;63.90
60455;DHT22;54989;53.398;6.564;2022-10-22T04:35:07;19.80;64.00
60455;DHT22;54989;53.398;6.564;2022-10-22T04:37:35;19.80;63.90
60455;DHT22;54989;53.398;6.564;2022-10-22T04:40:03;19.80;64.00
60455;DHT22;54989;53.398;6.564;2022-10-22T04:42:30;19.70;63.90
60455;DHT22;54989;53.398;6.564;2022-10-22T04:44:58;19.70;63.90
60455;DHT22;54989;53.398;6.564;2022-10-22T04:47:25;19.70;63.90
60455;DHT22;54989;53.398;6.564;2022-10-22T04:49:52;19.70;63.90
60455;DHT22;54989;53.398;6.564;2022-10-22T04:52:20;19.70;63.90
60455;DHT22;54989;53.398;6.564;2022-10-22T04:54:47;19.80;64.00
60455;DHT22;54989;53.398;6.564;2022-10-22T04:57:15;19.70;63.90
60455;DHT22;54989;53.398;6.564;2022-10-22T04:59:42;19.70;63.90
60455;DHT22;54989;53.398;6.564;2022-10-22T05:02:09;19.70;64.00
60455;DHT22;54989;53.398;6.564;2022-10-22T05:04:37;19.70;63.90
60455;DHT22;54989;53.398;6.564;2022-10-22T05:07:04;19.70;63.90
60455;DHT22;54989;53.398;6.564;2022-10-22T05:09:32;19.70;63.90
60455;DHT22;54989;53.398;6.564;2022-10-22T05:11:59;19.70;63.90
60455;DHT22;54989;53.398;6.564;2022-10-22T05:14:26;19.70;63.90
60455;DHT22;54989;53.398;6.564;2022-10-22T05:16:54;19.70;63.90
60455;DHT22;54989;53.398;6.564;2022-10-22T05:19:28;19.70;63.90
60455;DHT22;54989;53.398;6.564;2022-10-22T05:21:59;19.70;63.90
60455;DHT22;54989;53.398;6.564;2022-10-22T05:24:28;19.70;64.00
60455;DHT22;54989;53.398;6.564;2022-10-22T05:26:57;19.70;63.90
60455;DHT22;54989;53.398;6.564;2022-10-22T05:29:25;19.70;63.90
60455;DHT22;54989;53.398;6.564;2022-10-22T05:31:53;19.70;63.90
60455;DHT22;54989;53.398;6.564;2022-10-22T05:34:21;19.70;63.90
60455;DHT22;54989;53.398;6.564;2022-10-22T05:36:48;19.70;63.90
60455;DHT22;54989;53.398;6.564;2022-10-22T05:39:16;19.70;63.90
60455;DHT22;54989;53.398;6.564;2022-10-22T05:41:43;19.70;63.90
60455;DHT22;54989;53.398;6.564;2022-10-22T05:44:11;19.70;63.90
60455;DHT22;54989;53.398;6.564;2022-10-22T05:46:40;19.70;63.90
60455;DHT22;54989;53.398;6.564;2022-10-22T05:49:12;19.60;63.90
60455;DHT22;54989;53.398;6.564;2022-10-22T05:51:40;19.70;63.90
60455;DHT22;54989;53.398;6.564;2022-10-22T05:54:07;19.60;63.80
60455;DHT22;54989;53.398;6.564;2022-10-22T05:56:35;19.60;63.90
60455;DHT22;54989;53.398;6.564;2022-10-22T05:59:03;19.60;63.90
60455;DHT22;54989;53.398;6.564;2022-10-22T06:01:33;19.70;64.10
60455;DHT22;54989;53.398;6.564;2022-10-22T06:04:05;19.70;64.10
60455;DHT22;54989;53.398;6.564;2022-10-22T06:06:46;19.60;63.90
60455;DHT22;54989;53.398;6.564;2022-10-22T06:09:21;19.70;64.10
60455;DHT22;54989;53.398;6.564;2022-10-22T06:11:50;19.60;64.00
60455;DHT22;54989;53.398;6.564;2022-10-22T06:14:18;19.60;64.10
60455;DHT22;54989;53.398;6.564;2022-10-22T06:16:46;19.70;64.10
60455;DHT22;54989;53.398;6.564;2022-10-22T06:19:16;19.70;64.20
60455;DHT22;54989;53.398;6.564;2022-10-22T06:21:44;19.60;64.10
60455;DHT22;54989;53.398;6.564;2022-10-22T06:24:12;19.60;64.10
60455;DHT22;54989;53.398;6.564;2022-10-22T06:26:40;19.60;64.10
60455;DHT22;54989;53.398;6.564;2022-10-22T06:29:08;19.60;64.10
60455;DHT22;54989;53.398;6.564;2022-10-22T06:31:36;19.60;64.10
60455;DHT22;54989;53.398;6.564;2022-10-22T06:34:04;19.60;64.10
60455;DHT22;54989;53.398;6.564;2022-10-22T06:36:32;19.60;64.20
60455;DHT22;54989;53.398;6.564;2022-10-22T06:39:01;19.60;64.10
60455;DHT22;54989;53.398;6.564;2022-10-22T06:41:29;19.70;64.20
60455;DHT22;54989;53.398;6.564;2022-10-22T06:43:57;19.60;64.10
60455;DHT22;54989;53.398;6.564;2022-10-22T06:46:25;19.60;64.10
60455;DHT22;54989;53.398;6.564;2022-10-22T06:48:56;19.60;64.20
60455;DHT22;54989;53.398;6.564;2022-10-22T06:51:24;19.60;64.10
60455;DHT22;54989;53.398;6.564;2022-10-22T06:53:53;19.60;64.80
60455;DHT22;54989;53.398;6.564;2022-10-22T06:56:23;19.60;64.10
60455;DHT22;54989;53.398;6.564;2022-10-22T06:58:52;19.70;64.10
60455;DHT22;54989;53.398;6.564;2022-10-22T07:01:22;19.60;64.00
60455;DHT22;54989;53.398;6.564;2022-10-22T07:03:51;19.60;64.10
60455;DHT22;54989;53.398;6.564;2022-10-22T07:06:20;19.60;64.10
60455;DHT22;54989;53.398;6.564;2022-10-22T07:08:48;19.60;64.10
60455;DHT22;54989;53.398;6.564;2022-10-22T07:11:21;19.60;64.10
60455;DHT22;54989;53.398;6.564;2022-10-22T07:13:49;19.60;64.00
60455;DHT22;54989;53.398;6.564;2022-10-22T07:16:17;19.60;64.10
60455;DHT22;54989;53.398;6.564;2022-10-22T07:18:45;19.60;64.10
60455;DHT22;54989;53.398;6.564;2022-10-22T07:21:15;19.60;64.10
60455;DHT22;54989;53.398;6.564;2022-10-22T07:23:43;19.60;64.10
60455;DHT22;54989;53.398;6.564;2022-10-22T07:26:13;19.60;64.10
60455;DHT22;54989;53.398;6.564;2022-10-22T07:28:42;19.60;64.10
60455;DHT22;54989;53.398;6.564;2022-10-22T07:31:11;19.60;64.10
60455;DHT22;54989;53.398;6.564;2022-10-22T07:33:39;19.60;64.10
60455;DHT22;54989;53.398;6.564;2022-10-22T07:36:09;19.60;64.10
60455;DHT22;54989;53.398;6.564;2022-10-22T07:38:37;19.60;64.10
60455;DHT22;54989;53.398;6.564;2022-10-22T07:41:04;19.60;64.10
60455;DHT22;54989;53.398;6.564;2022-10-22T07:43:32;19.50;64.10
60455;DHT22;54989;53.398;6.564;2022-10-22T07:45:59;19.50;64.10
60455;DHT22;54989;53.398;6.564;2022-10-22T07:48:28;19.50;64.20
60455;DHT22;54989;53.398;6.564;2022-10-22T07:50:56;19.50;64.20
60455;DHT22;54989;53.398;6.564;2022-10-22T07:53:24;19.50;64.30
60455;DHT22;54989;53.398;6.564;2022-10-22T07:55:52;19.50;64.30
60455;DHT22;54989;53.398;6.564;2022-10-22T07:58:21;19.60;64.30
60455;DHT22;54989;53.398;6.564;2022-10-22T08:00:49;19.60;64.30
60455;DHT22;54989;53.398;6.564;2022-10-22T08:03:17;19.60;64.30
60455;DHT22;54989;53.398;6.564;2022-10-22T08:05:45;19.60;64.30
60455;DHT22;54989;53.398;6.564;2022-10-22T08:08:13;19.60;64.20
60455;DHT22;54989;53.398;6.564;2022-10-22T08:10:42;19.80;64.60
60455;DHT22;54989;53.398;6.564;2022-10-22T08:13:10;19.90;64.50
60455;DHT22;54989;53.398;6.564;2022-10-22T08:15:38;20.00;64.50
60455;DHT22;54989;53.398;6.564;2022-10-22T08:18:05;20.10;64.40
60455;DHT22;54989;53.398;6.564;2022-10-22T08:20:33;20.30;64.90
60455;DHT22;54989;53.398;6.564;2022-10-22T08:23:01;20.40;64.00
60455;DHT22;54989;53.398;6.564;2022-10-22T08:25:28;20.50;63.80
60455;DHT22;54989;53.398;6.564;2022-10-22T08:27:55;20.70;63.60
60455;DHT22;54989;53.398;6.564;2022-10-22T08:30:23;20.80;63.40
60455;DHT22;54989;53.398;6.564;2022-10-22T08:32:53;20.90;63.50
60455;DHT22;54989;53.398;6.564;2022-10-22T08:35:21;21.00;64.00
60455;DHT22;54989;53.398;6.564;2022-10-22T08:37:49;21.20;63.40
60455;DHT22;54989;53.398;6.564;2022-10-22T08:40:43;21.40;63.30
60455;DHT22;54989;53.398;6.564;2022-10-22T08:43:36;21.50;63.00
60455;DHT22;54989;53.398;6.564;2022-10-22T08:48:55;21.70;62.20
60455;DHT22;54989;53.398;6.564;2022-10-22T08:51:28;21.90;62.30
60455;DHT22;54989;53.398;6.564;2022-10-22T08:56:56;22.00;61.70
60455;DHT22;54989;53.398;6.564;2022-10-22T08:59:34;22.20;61.50
60455;DHT22;54989;53.398;6.564;2022-10-22T09:02:51;22.20;61.50
60455;DHT22;54989;53.398;6.564;2022-10-22T09:05:20;22.30;61.30
60455;DHT22;54989;53.398;6.564;2022-10-22T09:07:49;22.40;61.10
60455;DHT22;54989;53.398;6.564;2022-10-22T09:10:19;22.40;61.00
60455;DHT22;54989;53.398;6.564;2022-10-22T09:12:50;22.50;60.90
60455;DHT22;54989;53.398;6.564;2022-10-22T09:15:18;22.50;61.00
60455;DHT22;54989;53.398;6.564;2022-10-22T09:17:53;22.60;60.70
60455;DHT22;54989;53.398;6.564;2022-10-22T09:25:41;22.70;60.60
60455;DHT22;54989;53.398;6.564;2022-10-22T09:28:10;22.70;60.50
60455;DHT22;54989;53.398;6.564;2022-10-22T09:30:38;22.80;60.60
60455;DHT22;54989;53.398;6.564;2022-10-22T09:33:13;22.70;60.60
60455;DHT22;54989;53.398;6.564;2022-10-22T09:35:54;22.80;60.50
60455;DHT22;54989;53.398;6.564;2022-10-22T09:38:28;22.80;60.60
60455;DHT22;54989;53.398;6.564;2022-10-22T09:40:58;22.80;60.50
60455;DHT22;54989;53.398;6.564;2022-10-22T09:43:26;22.90;60.60
60455;DHT22;54989;53.398;6.564;2022-10-22T09:45:59;22.90;60.60
60455;DHT22;54989;53.398;6.564;2022-10-22T09:48:29;22.90;60.50
60455;DHT22;54989;53.398;6.564;2022-10-22T09:51:23;22.90;60.50
60455;DHT22;54989;53.398;6.564;2022-10-22T09:54:00;22.90;60.40
60455;DHT22;54989;53.398;6.564;2022-10-22T09:56:34;22.90;60.50
60455;DHT22;54989;53.398;6.564;2022-10-22T09:59:02;22.90;60.40
60455;DHT22;54989;53.398;6.564;2022-10-22T10:01:34;22.90;60.50
60455;DHT22;54989;53.398;6.564;2022-10-22T10:04:07;22.90;60.50
60455;DHT22;54989;53.398;6.564;2022-10-22T10:06:37;22.90;60.50
60455;DHT22;54989;53.398;6.564;2022-10-22T10:09:17;22.90;60.50
60455;DHT22;54989;53.398;6.564;2022-10-22T10:11:55;22.90;60.60
60455;DHT22;54989;53.398;6.564;2022-10-22T10:37:52;22.90;61.00
60455;DHT22;54989;53.398;6.564;2022-10-22T10:50:33;22.90;61.10
60455;DHT22;54989;53.398;6.564;2022-10-22T10:59:06;22.80;61.20
60455;DHT22;54989;53.398;6.564;2022-10-22T11:07:46;22.80;61.40
60455;DHT22;54989;53.398;6.564;2022-10-22T11:13:01;22.80;61.40
60455;DHT22;54989;53.398;6.564;2022-10-22T11:15:35;22.80;61.40
60455;DHT22;54989;53.398;6.564;2022-10-22T11:18:26;22.80;61.50
60455;DHT22;54989;53.398;6.564;2022-10-22T11:23:52;22.70;61.50
60455;DHT22;54989;53.398;6.564;2022-10-22T11:26:52;22.70;61.60
60455;DHT22;54989;53.398;6.564;2022-10-22T11:29:33;22.70;61.60
60455;DHT22;54989;53.398;6.564;2022-10-22T11:32:01;22.70;61.60
60455;DHT22;54989;53.398;6.564;2022-10-22T11:34:39;22.70;61.70
60455;DHT22;54989;53.398;6.564;2022-10-22T11:37:10;22.60;61.60
60455;DHT22;54989;53.398;6.564;2022-10-22T11:39:48;22.70;61.70
60455;DHT22;54989;53.398;6.564;2022-10-22T11:42:21;22.70;61.80
60455;DHT22;54989;53.398;6.564;2022-10-22T11:45:02;22.70;61.80
60455;DHT22;54989;53.398;6.564;2022-10-22T11:47:41;22.60;61.70
60455;DHT22;54989;53.398;6.564;2022-10-22T11:50:22;22.60;61.80
60455;DHT22;54989;53.398;6.564;2022-10-22T11:53:01;22.60;61.80
60455;DHT22;54989;53.398;6.564;2022-10-22T12:03:42;22.50;62.10
60455;DHT22;54989;53.398;6.564;2022-10-22T12:08:43;22.40;62.20
60455;DHT22;54989;53.398;6.564;2022-10-22T12:16:36;22.40;62.40
60455;DHT22;54989;53.398;6.564;2022-10-22T12:24:24;22.40;62.50
60455;DHT22;54989;53.398;6.564;2022-10-22T12:26:52;22.30;62.50
60455;DHT22;54989;53.398;6.564;2022-10-22T12:29:21;22.30;62.60
60455;DHT22;54989;53.398;6.564;2022-10-22T12:31:52;22.30;62.70
60455;DHT22;54989;53.398;6.564;2022-10-22T12:34:23;22.30;62.70
60455;DHT22;54989;53.398;6.564;2022-10-22T12:36:52;22.30;62.70
60455;DHT22;54989;53.398;6.564;2022-10-22T12:39:26;22.30;62.80
60455;DHT22;54989;53.398;6.564;2022-10-22T12:41:54;22.20;62.70
60455;DHT22;54989;53.398;6.564;2022-10-22T12:44:21;22.30;62.80
60455;DHT22;54989;53.398;6.564;2022-10-22T12:46:49;22.20;62.80
60455;DHT22;54989;53.398;6.564;2022-10-22T12:49:34;22.20;62.80
60455;DHT22;54989;53.398;6.564;2022-10-22T12:52:05;22.20;62.80
60455;DHT22;54989;53.398;6.564;2022-10-22T12:54:38;22.20;62.80
60455;DHT22;54989;53.398;6.564;2022-10-22T12:57:14;22.20;63.00
60455;DHT22;54989;53.398;6.564;2022-10-22T12:59:45;22.10;62.90
60455;DHT22;54989;53.398;6.564;2022-10-22T13:02:27;22.20;63.00
60455;DHT22;54989;53.398;6.564;2022-10-22T13:07:47;22.10;63.00
60455;DHT22;54989;53.398;6.564;2022-10-22T13:10:18;22.10;63.10
60455;DHT22;54989;53.398;6.564;2022-10-22T13:12:53;22.10;63.10
60455;DHT22;54989;53.398;6.564;2022-10-22T13:20:32;22.10;63.20
60455;DHT22;54989;53.398;6.564;2022-10-22T13:23:05;22.10;63.20
60455;DHT22;54989;53.398;6.564;2022-10-22T13:25:34;22.00;63.20
60455;DHT22;54989;53.398;6.564;2022-10-22T13:28:20;22.00;63.20
60455;DHT22;54989;53.398;6.564;2022-10-22T13:30:53;22.00;63.20
60455;DHT22;54989;53.398;6.564;2022-10-22T13:33:28;22.00;63.30
60455;DHT22;54989;53.398;6.564;2022-10-22T13:35:56;22.00;63.30
60455;DHT22;54989;53.398;6.564;2022-10-22T13:38:25;22.00;63.30
60455;DHT22;54989;53.398;6.564;2022-10-22T13:40:54;22.00;63.40
60455;DHT22;54989;53.398;6.564;2022-10-22T13:43:22;21.90;63.40
60455;DHT22;54989;53.398;6.564;2022-10-22T13:45:56;21.90;63.40
60455;DHT22;54989;53.398;6.564;2022-10-22T13:48:25;21.90;63.40
60455;DHT22;54989;53.398;6.564;2022-10-22T13:50:52;21.90;63.40
60455;DHT22;54989;53.398;6.564;2022-10-22T13:53:23;22.00;63.50
60455;DHT22;54989;53.398;6.564;2022-10-22T13:55:51;21.90;63.40
60455;DHT22;54989;53.398;6.564;2022-10-22T13:58:23;21.90;63.50
60455;DHT22;54989;53.398;6.564;2022-10-22T14:00:55;21.90;63.50
60455;DHT22;54989;53.398;6.564;2022-10-22T14:03:33;21.90;63.60
60455;DHT22;54989;53.398;6.564;2022-10-22T14:06:06;21.90;63.50
60455;DHT22;54989;53.398;6.564;2022-10-22T14:08:38;21.90;63.50
60455;DHT22;54989;53.398;6.564;2022-10-22T14:11:09;21.90;63.50
60455;DHT22;54989;53.398;6.564;2022-10-22T14:13:37;22.00;63.50
60455;DHT22;54989;53.398;6.564;2022-10-22T14:16:06;22.00;63.40
60455;DHT22;54989;53.398;6.564;2022-10-22T14:18:38;21.90;63.40
60455;DHT22;54989;53.398;6.564;2022-10-22T14:21:05;21.90;63.30
60455;DHT22;54989;53.398;6.564;2022-10-22T14:23:36;21.90;63.40
60455;DHT22;54989;53.398;6.564;2022-10-22T14:26:03;21.90;63.40
60455;DHT22;54989;53.398;6.564;2022-10-22T14:28:36;21.90;63.40
60455;DHT22;54989;53.398;6.564;2022-10-22T14:31:24;21.90;63.40
60455;DHT22;54989;53.398;6.564;2022-10-22T14:33:51;21.90;63.50
60455;DHT22;54989;53.398;6.564;2022-10-22T14:36:19;21.90;63.50
60455;DHT22;54989;53.398;6.564;2022-10-22T14:38:47;21.90;63.50
60455;DHT22;54989;53.398;6.564;2022-10-22T14:41:21;21.90;63.50
60455;DHT22;54989;53.398;6.564;2022-10-22T14:43:50;21.90;63.50
60455;DHT22;54989;53.398;6.564;2022-10-22T14:46:18;21.90;63.50
60455;DHT22;54989;53.398;6.564;2022-10-22T14:48:45;21.90;63.50
60455;DHT22;54989;53.398;6.564;2022-10-22T14:51:18;21.90;63.60
60455;DHT22;54989;53.398;6.564;2022-10-22T14:53:46;21.90;63.60
60455;DHT22;54989;53.398;6.564;2022-10-22T14:56:17;21.90;63.60
60455;DHT22;54989;53.398;6.564;2022-10-22T14:58:47;21.80;63.60
60455;DHT22;54989;53.398;6.564;2022-10-22T15:01:15;21.80;63.70
60455;DHT22;54989;53.398;6.564;2022-10-22T15:03:43;21.90;63.50
60455;DHT22;54989;53.398;6.564;2022-10-22T15:06:11;21.90;63.50
60455;DHT22;54989;53.398;6.564;2022-10-22T15:08:38;21.90;63.50
60455;DHT22;54989;53.398;6.564;2022-10-22T15:11:09;21.90;63.40
60455;DHT22;54989;53.398;6.564;2022-10-22T15:13:37;21.90;63.30
60455;DHT22;54989;53.398;6.564;2022-10-22T15:16:08;21.90;63.30
60455;DHT22;54989;53.398;6.564;2022-10-22T15:18:36;21.90;63.50
60455;DHT22;54989;53.398;6.564;2022-10-22T15:21:06;21.90;63.50
60455;DHT22;54989;53.398;6.564;2022-10-22T15:23:35;21.90;63.50
60455;DHT22;54989;53.398;6.564;2022-10-22T15:26:05;21.90;63.50
60455;DHT22;54989;53.398;6.564;2022-10-22T15:28:32;21.90;63.60
60455;DHT22;54989;53.398;6.564;2022-10-22T15:31:00;21.90;63.60
60455;DHT22;54989;53.398;6.564;2022-10-22T15:33:28;21.80;63.50
60455;DHT22;54989;53.398;6.564;2022-10-22T15:35:56;21.80;63.60
60455;DHT22;54989;53.398;6.564;2022-10-22T15:38:27;21.80;64.20
60455;DHT22;54989;53.398;6.564;2022-10-22T15:41:03;21.80;63.60
60455;DHT22;54989;53.398;6.564;2022-10-22T15:43:32;21.80;63.60
60455;DHT22;54989;53.398;6.564;2022-10-22T15:46:16;21.80;63.60
60455;DHT22;54989;53.398;6.564;2022-10-22T15:48:44;21.80;63.70
60455;DHT22;54989;53.398;6.564;2022-10-22T15:51:14;21.80;63.70
60455;DHT22;54989;53.398;6.564;2022-10-22T15:53:43;21.80;63.70
60455;DHT22;54989;53.398;6.564;2022-10-22T15:56:10;21.80;64.40
60455;DHT22;54989;53.398;6.564;2022-10-22T15:58:38;21.80;63.80
60455;DHT22;54989;53.398;6.564;2022-10-22T16:01:07;21.70;63.70
60455;DHT22;54989;53.398;6.564;2022-10-22T16:03:35;21.70;63.80
60455;DHT22;54989;53.398;6.564;2022-10-22T16:06:03;21.70;63.80
60455;DHT22;54989;53.398;6.564;2022-10-22T16:08:30;21.70;63.90
60455;DHT22;54989;53.398;6.564;2022-10-22T16:10:58;21.70;63.90
60455;DHT22;54989;53.398;6.564;2022-10-22T16:13:26;21.70;63.80
60455;DHT22;54989;53.398;6.564;2022-10-22T16:15:53;21.70;63.70
60455;DHT22;54989;53.398;6.564;2022-10-22T16:18:21;21.70;63.70
60455;DHT22;54989;53.398;6.564;2022-10-22T16:20:49;21.70;63.60
60455;DHT22;54989;53.398;6.564;2022-10-22T16:23:17;21.70;63.50
60455;DHT22;54989;53.398;6.564;2022-10-22T16:25:45;21.70;63.50
60455;DHT22;54989;53.398;6.564;2022-10-22T16:28:13;21.70;63.40
60455;DHT22;54989;53.398;6.564;2022-10-22T16:30:41;21.80;63.50
60455;DHT22;54989;53.398;6.564;2022-10-22T16:33:09;21.70;63.60
60455;DHT22;54989;53.398;6.564;2022-10-22T16:35:42;21.80;63.70
60455;DHT22;54989;53.398;6.564;2022-10-22T16:38:10;21.70;63.50
60455;DHT22;54989;53.398;6.564;2022-10-22T16:40:38;21.70;63.40
60455;DHT22;54989;53.398;6.564;2022-10-22T16:43:06;21.80;63.40
60455;DHT22;54989;53.398;6.564;2022-10-22T16:45:33;21.70;63.40
60455;DHT22;54989;53.398;6.564;2022-10-22T16:48:01;21.70;64.00
60455;DHT22;54989;53.398;6.564;2022-10-22T16:50:28;21.70;63.40
60455;DHT22;54989;53.398;6.564;2022-10-22T16:52:56;21.70;63.50
60455;DHT22;54989;53.398;6.564;2022-10-22T16:55:23;21.70;63.50
60455;DHT22;54989;53.398;6.564;2022-10-22T16:57:51;21.70;63.50
60455;DHT22;54989;53.398;6.564;2022-10-22T17:00:20;21.70;63.40
60455;DHT22;54989;53.398;6.564;2022-10-22T17:02:52;21.70;63.40
60455;DHT22;54989;53.398;6.564;2022-10-22T17:05:20;21.70;63.40
60455;DHT22;54989;53.398;6.564;2022-10-22T17:07:48;21.70;63.40
60455;DHT22;54989;53.398;6.564;2022-10-22T17:10:17;21.70;63.40
60455;DHT22;54989;53.398;6.564;2022-10-22T17:12:46;21.70;63.40
60455;DHT22;54989;53.398;6.564;2022-10-22T17:15:14;21.70;64.10
60455;DHT22;54989;53.398;6.564;2022-10-22T17:17:41;21.70;63.40
60455;DHT22;54989;53.398;6.564;2022-10-22T17:20:09;21.70;63.30
60455;DHT22;54989;53.398;6.564;2022-10-22T17:22:41;21.70;63.30
60455;DHT22;54989;53.398;6.564;2022-10-22T17:25:23;21.70;63.30
60455;DHT22;54989;53.398;6.564;2022-10-22T17:27:53;21.70;63.30
60455;DHT22;54989;53.398;6.564;2022-10-22T17:30:21;21.70;63.40
60455;DHT22;54989;53.398;6.564;2022-10-22T17:32:53;21.70;63.40
60455;DHT22;54989;53.398;6.564;2022-10-22T17:35:21;21.70;63.50
60455;DHT22;54989;53.398;6.564;2022-10-22T17:37:50;21.60;63.50
60455;DHT22;54989;53.398;6.564;2022-10-22T17:40:17;21.70;63.50
60455;DHT22;54989;53.398;6.564;2022-10-22T17:42:45;21.60;63.40